createdAt,value
2022-12-14T00:01:49.233Z,97926.44
2022-12-14T00:04:16.458Z,97938.94
2022-12-14T00:06:42.941Z,97929.16
2022-12-14T00:09:12.553Z,97922.09
2022-12-14T00:11:39.009Z,97937.72
2022-12-14T00:14:05.703Z,97926.44
2022-12-14T00:16:35.457Z,97920.63
2022-12-14T00:19:02.515Z,97924.44
2022-12-14T00:21:32.222Z,97925.31
2022-12-14T00:24:00.314Z,97925.44
2022-12-14T00:26:30.997Z,97934.69
2022-12-14T00:28:58.599Z,97928.16
2022-12-14T00:31:25.577Z,97930.44
2022-12-14T00:33:53.314Z,97920.22
2022-12-14T00:36:19.939Z,97914.16
2022-12-14T00:38:46.383Z,97915.88
2022-12-14T00:41:13.369Z,97912.00
2022-12-14T00:43:40.899Z,97918.34
2022-12-14T00:46:07.696Z,97908.34
2022-12-14T00:48:38.361Z,97904.47
2022-12-14T00:51:06.510Z,97902.81
2022-12-14T00:53:32.953Z,97902.94
2022-12-14T00:56:08.163Z,97902.97
2022-12-14T00:58:38.105Z,97901.13
2022-12-14T01:01:07.182Z,97895.91
2022-12-14T01:03:34.731Z,97894.03
2022-12-14T01:06:01.795Z,97895.72
2022-12-14T01:08:35.369Z,97894.16
2022-12-14T01:11:13.392Z,97894.16
2022-12-14T01:13:49.131Z,97891.91
2022-12-14T01:16:16.391Z,97888.75
2022-12-14T01:18:43.473Z,97900.94
2022-12-14T01:21:25.932Z,97901.56
2022-12-14T01:23:58.075Z,97896.06
2022-12-14T01:26:26.213Z,97892.47
2022-12-14T01:28:56.332Z,97888.66
2022-12-14T01:31:29.000Z,97884.28
2022-12-14T01:33:56.078Z,97889.56
2022-12-14T01:36:33.749Z,97891.31
2022-12-14T01:39:04.936Z,97886.22
2022-12-14T01:41:37.258Z,97876.13
2022-12-14T01:44:23.611Z,97873.03
2022-12-14T01:46:53.584Z,97868.03
2022-12-14T01:49:31.081Z,97869.47
2022-12-14T01:52:29.137Z,97872.56
2022-12-14T01:55:15.863Z,97864.94
2022-12-14T01:57:51.650Z,97868.28
2022-12-14T02:00:18.189Z,97869.34
2022-12-14T02:02:54.327Z,97869.47
2022-12-14T02:05:22.439Z,97860.91
2022-12-14T02:07:51.680Z,97874.75
2022-12-14T02:10:21.888Z,97874.91
2022-12-14T02:12:54.599Z,97868.16
2022-12-14T02:15:21.301Z,97862.13
2022-12-14T02:17:48.505Z,97854.38
2022-12-14T02:20:21.413Z,97855.88
2022-12-14T02:23:14.182Z,97851.47
2022-12-14T02:25:43.486Z,97854.63
2022-12-14T02:28:27.227Z,97843.00
2022-12-14T02:31:04.595Z,97842.19
2022-12-14T02:33:44.959Z,97839.50
2022-12-14T02:36:31.282Z,97836.22
2022-12-14T02:39:16.011Z,97837.22
2022-12-14T02:42:03.256Z,97839.16
2022-12-14T02:45:01.749Z,97833.53
2022-12-14T02:47:54.557Z,97823.63
2022-12-14T02:50:39.992Z,97826.06
2022-12-14T02:53:21.661Z,97820.22
2022-12-14T02:55:53.204Z,97819.56
2022-12-14T02:58:28.457Z,97820.28
2022-12-14T03:00:56.299Z,97816.16
2022-12-14T03:03:26.647Z,97814.13
2022-12-14T03:06:14.475Z,97816.84
2022-12-14T03:08:45.735Z,97810.31
2022-12-14T03:11:19.439Z,97812.34
2022-12-14T03:14:04.671Z,97802.53
2022-12-14T03:16:39.133Z,97805.31
2022-12-14T03:19:29.076Z,97812.34
2022-12-14T03:22:00.297Z,97800.91
2022-12-14T03:24:39.208Z,97797.44
2022-12-14T03:27:16.701Z,97792.28
2022-12-14T03:29:48.752Z,97793.44
2022-12-14T03:32:23.415Z,97786.78
2022-12-14T03:34:55.879Z,97790.84
2022-12-14T03:37:38.375Z,97791.75
2022-12-14T03:40:09.130Z,97785.22
2022-12-14T03:42:42.070Z,97777.44
2022-12-14T03:45:23.700Z,97773.59
2022-12-14T03:48:04.236Z,97767.66
2022-12-14T03:50:43.142Z,97773.78
2022-12-14T03:53:12.703Z,97758.69
2022-12-14T03:55:46.422Z,97748.66
2022-12-14T03:58:42.658Z,97747.91
2022-12-14T04:01:27.454Z,97748.38
2022-12-14T04:04:04.262Z,97749.19
2022-12-14T04:06:49.732Z,97745.13
2022-12-14T04:09:22.243Z,97742.69
2022-12-14T04:12:14.896Z,97737.06
2022-12-14T04:15:08.726Z,97730.13
2022-12-14T04:17:57.070Z,97722.50
2022-12-14T04:20:28.743Z,97716.81
2022-12-14T04:23:09.855Z,97719.44
2022-12-14T04:26:01.562Z,97714.16
2022-12-14T04:28:56.683Z,97714.84
2022-12-14T04:31:28.553Z,97706.38
2022-12-14T04:33:59.418Z,97702.28
2022-12-14T04:36:33.778Z,97698.91
2022-12-14T04:39:09.250Z,97701.72
2022-12-14T04:41:42.989Z,97696.19
2022-12-14T04:44:24.812Z,97704.63
2022-12-14T04:46:52.972Z,97704.56
2022-12-14T04:49:40.625Z,97705.69
2022-12-14T04:52:33.892Z,97702.91
2022-12-14T04:55:06.740Z,97703.78
2022-12-14T04:57:48.312Z,97705.53
2022-12-14T05:00:15.619Z,97702.16
2022-12-14T05:03:19.528Z,97693.22
2022-12-14T05:06:11.041Z,97693.53
2022-12-14T05:09:05.015Z,97694.38
2022-12-14T05:11:53.064Z,97692.84
2022-12-14T05:14:26.774Z,97696.34
2022-12-14T05:16:53.645Z,97691.53
2022-12-14T05:19:20.329Z,97694.09
2022-12-14T05:21:49.708Z,97680.16
2022-12-14T05:24:17.191Z,97683.06
2022-12-14T05:26:44.524Z,97676.22
2022-12-14T05:29:11.649Z,97672.78
2022-12-14T05:31:38.434Z,97677.09
2022-12-14T05:34:04.942Z,97667.81
2022-12-14T05:36:31.428Z,97667.75
2022-12-14T05:38:57.932Z,97665.16
2022-12-14T05:41:24.497Z,97655.69
2022-12-14T05:43:50.978Z,97656.50
2022-12-14T05:46:18.491Z,97653.06
2022-12-14T05:48:49.189Z,97645.97
2022-12-14T05:51:16.510Z,97652.09
2022-12-14T05:53:43.511Z,97641.06
2022-12-14T05:56:11.052Z,97645.56
2022-12-14T05:58:38.643Z,97644.00
2022-12-14T06:01:09.778Z,97638.63
2022-12-14T06:03:39.148Z,97640.13
2022-12-14T06:06:08.631Z,97644.44
2022-12-14T06:08:37.348Z,97638.25
2022-12-14T06:11:23.454Z,97632.69
2022-12-14T06:13:50.216Z,97626.72
2022-12-14T06:16:22.849Z,97634.91
2022-12-14T06:18:54.769Z,97621.34
2022-12-14T06:21:25.539Z,97616.06
2022-12-14T06:23:52.100Z,97612.03
2022-12-14T06:26:18.888Z,97607.19
2022-12-14T06:28:45.582Z,97606.25
2022-12-14T06:31:19.371Z,97602.28
2022-12-14T06:33:46.568Z,97604.97
2022-12-14T06:36:17.735Z,97606.53
2022-12-14T06:38:44.480Z,97596.09
2022-12-14T06:41:12.420Z,97591.97
2022-12-14T06:43:38.975Z,97590.69
2022-12-14T06:46:15.757Z,97593.38
2022-12-14T06:48:42.825Z,97584.25
2022-12-14T06:51:09.838Z,97586.22
2022-12-14T06:53:36.511Z,97588.00
2022-12-14T06:56:10.492Z,97586.41
2022-12-14T06:58:37.210Z,97583.78
2022-12-14T07:01:13.469Z,97568.75
2022-12-14T07:03:41.375Z,97566.31
2022-12-14T07:06:08.222Z,97567.25
2022-12-14T07:08:37.480Z,97559.63
2022-12-14T07:11:06.755Z,97557.41
2022-12-14T07:13:34.139Z,97558.91
2022-12-14T07:16:01.914Z,97561.44
2022-12-14T07:18:31.581Z,97554.88
2022-12-14T07:21:00.664Z,97550.41
2022-12-14T07:23:29.680Z,97561.22
2022-12-14T07:26:27.465Z,97541.97
2022-12-14T07:28:54.639Z,97543.88
2022-12-14T07:31:24.160Z,97539.09
2022-12-14T07:33:55.808Z,97535.59
2022-12-14T07:36:23.891Z,97535.72
2022-12-14T07:38:51.583Z,97543.97
2022-12-14T07:41:24.574Z,97532.19
2022-12-14T07:43:53.509Z,97530.81
2022-12-14T07:46:24.596Z,97535.41
2022-12-14T07:48:53.435Z,97532.56
2022-12-14T07:51:22.420Z,97521.41
2022-12-14T07:53:50.159Z,97524.31
2022-12-14T07:56:22.299Z,97521.78
2022-12-14T07:58:49.718Z,97515.00
2022-12-14T08:01:18.842Z,97498.19
2022-12-14T08:03:51.582Z,97503.78
2022-12-14T08:06:19.887Z,97494.78
2022-12-14T08:08:47.844Z,97492.13
2022-12-14T08:11:16.474Z,97507.47
2022-12-14T08:13:43.383Z,97502.28
2022-12-14T08:16:12.907Z,97507.00
2022-12-14T08:18:40.006Z,97502.56
2022-12-14T08:21:08.466Z,97508.31
2022-12-14T08:23:35.511Z,97510.63
2022-12-14T08:26:03.809Z,97510.56
2022-12-14T08:28:31.959Z,97520.94
2022-12-14T08:31:04.411Z,97510.06
2022-12-14T08:33:31.549Z,97505.28
2022-12-14T08:36:14.810Z,97501.16
2022-12-14T08:38:41.828Z,97509.19
2022-12-14T08:41:13.891Z,97494.78
2022-12-14T08:43:41.403Z,97498.19
2022-12-14T08:46:09.555Z,97511.00
2022-12-14T08:48:38.230Z,97500.91
2022-12-14T08:51:07.181Z,97505.03
2022-12-14T08:53:34.547Z,97506.09
2022-12-14T08:56:10.463Z,97502.81
2022-12-14T08:58:38.032Z,97495.31
2022-12-14T09:01:13.880Z,97505.56
2022-12-14T09:03:42.172Z,97514.97
2022-12-14T09:06:11.269Z,97514.06
2022-12-14T09:08:37.910Z,97506.44
2022-12-14T09:11:05.681Z,97511.84
2022-12-14T09:13:33.741Z,97498.34
2022-12-14T09:16:06.897Z,97505.28
2022-12-14T09:18:34.771Z,97506.31
2022-12-14T09:21:01.637Z,97498.69
2022-12-14T09:23:30.503Z,97507.25
2022-12-14T09:26:16.603Z,97503.97
2022-12-14T09:28:46.600Z,97502.22
2022-12-14T09:31:15.841Z,97501.66
2022-12-14T09:33:42.728Z,97497.50
2022-12-14T09:36:18.983Z,97499.56
2022-12-14T09:38:51.141Z,97501.09
2022-12-14T09:41:30.293Z,97493.50
2022-12-14T09:44:18.824Z,97495.41
2022-12-14T09:47:17.852Z,97485.06
2022-12-14T09:49:54.353Z,97487.44
2022-12-14T09:52:29.888Z,97488.25
2022-12-14T09:54:58.438Z,97496.38
2022-12-14T09:57:34.457Z,97495.34
2022-12-14T10:00:01.099Z,97481.44
2022-12-14T10:02:52.048Z,97495.44
2022-12-14T10:05:42.921Z,97485.50
2022-12-14T10:08:25.983Z,97484.75
2022-12-14T10:11:22.001Z,97477.56
2022-12-14T10:13:55.838Z,97476.75
2022-12-14T10:16:35.223Z,97471.66
2022-12-14T10:19:20.494Z,97477.47
2022-12-14T10:21:55.846Z,97465.44
2022-12-14T10:24:27.349Z,97462.97
2022-12-14T10:26:55.666Z,97464.09
2022-12-14T10:29:26.328Z,97468.66
2022-12-14T10:32:03.580Z,97457.81
2022-12-14T10:34:32.479Z,97463.06
2022-12-14T10:37:23.609Z,97452.84
2022-12-14T10:40:17.560Z,97470.06
2022-12-14T10:43:15.261Z,97458.00
2022-12-14T10:46:20.107Z,97463.59
2022-12-14T10:48:56.934Z,97466.16
2022-12-14T10:51:38.509Z,97465.44
2022-12-14T10:54:25.409Z,97454.44
2022-12-14T10:56:51.991Z,97454.53
2022-12-14T10:59:18.489Z,97458.56
2022-12-14T11:01:48.244Z,97456.09
2022-12-14T11:04:33.883Z,97458.84
2022-12-14T11:07:05.485Z,97453.56
2022-12-14T11:09:32.294Z,97447.34
2022-12-14T11:12:08.106Z,97444.91
2022-12-14T11:14:36.774Z,97443.38
2022-12-14T11:17:04.211Z,97433.31
2022-12-14T11:19:30.933Z,97441.66
2022-12-14T11:22:18.698Z,97445.78
2022-12-14T11:24:48.826Z,97444.13
2022-12-14T11:27:21.013Z,97446.34
2022-12-14T11:29:50.476Z,97441.19
2022-12-14T11:32:24.188Z,97445.47
2022-12-14T11:34:57.443Z,97439.34
2022-12-14T11:37:26.154Z,97438.84
2022-12-14T11:39:56.295Z,97440.59
2022-12-14T11:42:24.305Z,97438.91
2022-12-14T11:44:54.128Z,97437.13
2022-12-14T11:47:28.875Z,97430.72
2022-12-14T11:49:57.896Z,97434.16
2022-12-14T11:52:37.985Z,97427.41
2022-12-14T11:55:14.486Z,97419.50
2022-12-14T11:57:59.115Z,97420.13
2022-12-14T12:00:46.829Z,97426.84
2022-12-14T12:03:19.168Z,97421.81
2022-12-14T12:05:46.541Z,97425.34
2022-12-14T12:08:23.415Z,97417.53
2022-12-14T12:10:51.747Z,97413.13
2022-12-14T12:13:24.000Z,97412.16
2022-12-14T12:15:55.020Z,97418.19
2022-12-14T12:18:46.222Z,97406.38
2022-12-14T12:21:22.603Z,97410.63
2022-12-14T12:24:02.665Z,97404.66
2022-12-14T12:26:34.474Z,97401.31
2022-12-14T12:29:14.609Z,97403.06
2022-12-14T12:31:48.857Z,97401.41
2022-12-14T12:34:21.919Z,97396.22
2022-12-14T12:37:24.771Z,97391.16
2022-12-14T12:39:42.955Z,97385.97
2022-12-14T12:42:22.745Z,97392.94
2022-12-14T12:44:56.587Z,97387.72
2022-12-14T12:47:46.557Z,97379.94
2022-12-14T12:50:17.630Z,97383.22
2022-12-14T12:53:04.293Z,97386.59
2022-12-14T12:55:41.578Z,97390.88
2022-12-14T12:58:18.895Z,97385.63
2022-12-14T13:00:51.415Z,97393.16
2022-12-14T13:03:32.342Z,97389.59
2022-12-14T13:06:11.681Z,97389.56
2022-12-14T13:08:42.021Z,97380.81
2022-12-14T13:11:27.542Z,97379.84
2022-12-14T13:13:59.923Z,97389.19
2022-12-14T13:16:38.692Z,97387.41
2022-12-14T13:22:24.693Z,97386.16
2022-12-14T13:24:58.642Z,97381.97
2022-12-14T13:27:25.945Z,97377.16
2022-12-14T13:30:09.810Z,97377.22
2022-12-14T13:33:23.710Z,97381.28
2022-12-14T13:36:31.846Z,97377.47
2022-12-14T13:39:20.843Z,97378.94
2022-12-14T13:42:02.740Z,97377.81
2022-12-14T13:44:47.936Z,97373.44
2022-12-14T13:47:22.138Z,97377.44
2022-12-14T13:50:35.012Z,97369.72
2022-12-14T13:52:47.834Z,97369.50
2022-12-14T13:55:39.001Z,97373.75
2022-12-14T13:58:34.057Z,97374.78
2022-12-14T14:01:07.009Z,97373.03
2022-12-14T14:03:36.327Z,97371.16
2022-12-14T14:06:14.827Z,97377.19
2022-12-14T14:08:50.671Z,97372.03
2022-12-14T14:11:39.332Z,97372.09
2022-12-14T14:14:27.283Z,97377.19
2022-12-14T14:16:59.393Z,97378.78
2022-12-14T14:19:28.417Z,97370.34
2022-12-14T14:22:27.878Z,97378.97
2022-12-14T14:25:12.222Z,97386.75
2022-12-14T14:27:42.020Z,97384.22
2022-12-14T14:30:38.073Z,97374.22
2022-12-14T14:33:45.382Z,97378.66
2022-12-14T14:36:33.522Z,97374.78
2022-12-14T14:39:55.417Z,97381.69
2022-12-14T14:42:21.644Z,97377.59
2022-12-14T14:45:11.297Z,97376.72
2022-12-14T14:47:40.140Z,97378.97
2022-12-14T14:50:15.684Z,97389.47
2022-12-14T14:52:42.061Z,97393.22
2022-12-14T14:55:52.690Z,97401.09
2022-12-14T14:58:26.398Z,97397.94
2022-12-14T15:01:08.085Z,97401.44
2022-12-14T15:03:57.060Z,97401.44
2022-12-14T15:06:36.994Z,97394.44
2022-12-14T15:09:07.035Z,97394.38
2022-12-14T15:11:45.300Z,97389.81
2022-12-14T15:14:26.657Z,97384.34
2022-12-14T15:16:53.255Z,97385.31
2022-12-14T15:19:21.610Z,97385.47
2022-12-14T15:21:54.263Z,97387.19
2022-12-14T15:24:22.439Z,97382.84
2022-12-14T15:26:50.528Z,97391.22
2022-12-14T15:29:22.866Z,97391.78
2022-12-14T15:31:59.017Z,97390.84
2022-12-14T15:34:26.435Z,97396.06
2022-12-14T15:36:53.731Z,97401.03
2022-12-14T15:39:39.998Z,97397.41
2022-12-14T15:42:16.938Z,97404.53
2022-12-14T15:44:51.562Z,97397.88
2022-12-14T15:47:29.811Z,97403.13
2022-12-14T15:50:35.193Z,97401.16
2022-12-14T15:53:13.594Z,97407.16
2022-12-14T15:55:44.155Z,97412.75
2022-12-14T15:58:31.952Z,97407.00
2022-12-14T16:01:21.693Z,97402.06
2022-12-14T16:03:52.900Z,97404.06
2022-12-14T16:06:20.466Z,97407.00
2022-12-14T16:09:05.047Z,97407.00
2022-12-14T16:11:44.471Z,97408.84
2022-12-14T16:14:24.292Z,97402.06
2022-12-14T16:16:51.212Z,97408.09
2022-12-14T16:19:28.353Z,97402.78
2022-12-14T16:22:22.803Z,97410.69
2022-12-14T16:25:08.460Z,97415.78
2022-12-14T16:27:40.985Z,97414.94
2022-12-14T16:30:23.434Z,97410.84
2022-12-14T16:32:53.284Z,97408.44
2022-12-14T16:35:26.324Z,97412.69
2022-12-14T16:37:58.235Z,97411.56
2022-12-14T16:40:32.632Z,97416.53
2022-12-14T16:42:59.260Z,97417.63
2022-12-14T16:45:46.084Z,97420.28
2022-12-14T16:48:22.205Z,97422.63
2022-12-14T16:51:01.337Z,97425.38
2022-12-14T16:53:34.923Z,97431.97
2022-12-14T16:56:07.409Z,97423.66
2022-12-14T16:58:35.858Z,97428.16
2022-12-14T17:01:06.297Z,97433.09
2022-12-14T17:03:34.260Z,97438.50
2022-12-14T17:06:06.431Z,97433.97
2022-12-14T17:08:36.134Z,97431.38
2022-12-14T17:11:03.299Z,97430.88
2022-12-14T17:13:30.323Z,97439.41
2022-12-14T17:16:06.526Z,97439.56
2022-12-14T17:18:39.006Z,97437.34
2022-12-14T17:21:07.384Z,97429.41
2022-12-14T17:23:39.537Z,97421.69
2022-12-14T17:26:06.068Z,97425.31
2022-12-14T17:28:35.561Z,97431.38
2022-12-14T17:31:03.163Z,97428.19
2022-12-14T17:33:31.428Z,97431.28
2022-12-14T17:36:10.494Z,97429.50
2022-12-14T17:38:44.170Z,97430.28
2022-12-14T17:41:24.191Z,97431.28
2022-12-14T17:43:56.690Z,97434.94
2022-12-14T17:46:25.107Z,97429.91
2022-12-14T17:48:51.956Z,97427.22
2022-12-14T17:51:25.321Z,97425.88
2022-12-14T17:53:57.596Z,97427.59
2022-12-14T17:56:24.897Z,97424.13
2022-12-14T17:58:54.287Z,97431.97
2022-12-14T18:01:25.931Z,97432.03
2022-12-14T18:03:52.559Z,97432.16
2022-12-14T18:06:19.236Z,97425.56
2022-12-14T18:08:46.807Z,97431.38
2022-12-14T18:11:19.095Z,97440.16
2022-12-14T18:13:48.806Z,97438.91
2022-12-14T18:16:20.832Z,97440.25
2022-12-14T18:18:47.790Z,97441.06
2022-12-14T18:21:19.224Z,97451.47
2022-12-14T18:23:46.656Z,97446.31
2022-12-14T18:26:20.765Z,97455.94
2022-12-14T18:28:52.394Z,97448.91
2022-12-14T18:31:29.231Z,97456.50
2022-12-14T18:33:55.763Z,97459.69
2022-12-14T18:36:26.061Z,97462.81
2022-12-14T18:38:55.688Z,97459.50
2022-12-14T18:41:24.464Z,97458.88
2022-12-14T18:43:51.512Z,97467.72
2022-12-14T18:46:18.107Z,97463.44
2022-12-14T18:48:45.095Z,97467.78
2022-12-14T18:51:32.030Z,97472.19
2022-12-14T18:54:00.151Z,97468.53
2022-12-14T18:56:28.166Z,97472.06
2022-12-14T18:58:56.176Z,97468.59
2022-12-14T19:01:24.679Z,97470.94
2022-12-14T19:03:51.770Z,97478.72
2022-12-14T19:06:43.687Z,97476.31
2022-12-14T19:09:07.494Z,97472.06
2022-12-14T19:11:40.043Z,97469.34
2022-12-14T19:14:06.879Z,97473.63
2022-12-14T19:16:33.501Z,97471.94
2022-12-14T19:19:00.757Z,97473.75
2022-12-14T19:21:29.356Z,97485.59
2022-12-14T19:23:56.040Z,97482.22
2022-12-14T19:26:22.698Z,97492.38
2022-12-14T19:28:49.260Z,97494.69
2022-12-14T19:31:15.799Z,97496.25
2022-12-14T19:33:42.329Z,97500.53
2022-12-14T19:36:09.563Z,97500.53
2022-12-14T19:38:36.390Z,97487.78
2022-12-14T19:41:13.462Z,97489.69
2022-12-14T19:43:39.909Z,97487.94
2022-12-14T19:46:07.715Z,97487.13
2022-12-14T19:48:34.276Z,97476.84
2022-12-14T19:51:11.652Z,97485.38
2022-12-14T19:53:40.144Z,97475.19
2022-12-14T19:56:07.374Z,97479.53
2022-12-14T19:58:33.879Z,97474.91
2022-12-14T20:01:00.808Z,97466.53
2022-12-14T20:03:28.120Z,97466.66
2022-12-14T20:05:58.718Z,97464.16
2022-12-14T20:08:27.043Z,97470.22
2022-12-14T20:10:53.731Z,97473.03
2022-12-14T20:13:25.379Z,97473.91
2022-12-14T20:16:15.550Z,97474.84
2022-12-14T20:18:53.042Z,97475.78
2022-12-14T20:21:22.409Z,97474.19
2022-12-14T20:23:49.262Z,97488.00
2022-12-14T20:26:18.870Z,97484.38
2022-12-14T20:28:53.948Z,97487.06
2022-12-14T20:31:22.210Z,97494.13
2022-12-14T20:33:49.826Z,97491.53
2022-12-14T20:36:18.561Z,97496.81
2022-12-14T20:38:53.670Z,97503.00
2022-12-14T20:41:20.099Z,97500.28
2022-12-14T20:43:46.655Z,97509.84
2022-12-14T20:46:36.071Z,97516.22
2022-12-14T20:49:09.199Z,97516.22
2022-12-14T20:51:37.556Z,97516.75
2022-12-14T20:54:06.599Z,97517.69
2022-12-14T20:56:35.444Z,97525.53
2022-12-14T20:59:03.130Z,97516.94
2022-12-14T21:01:29.974Z,97524.72
2022-12-14T21:04:00.586Z,97528.94
2022-12-14T21:06:27.126Z,97525.59
2022-12-14T21:09:05.365Z,97527.56
2022-12-14T21:11:52.479Z,97523.09
2022-12-14T21:14:36.498Z,97519.63
2022-12-14T21:17:06.887Z,97533.53
2022-12-14T21:19:36.185Z,97539.56
2022-12-14T21:22:07.117Z,97532.56
2022-12-14T21:25:07.509Z,97534.59
2022-12-14T21:27:26.911Z,97546.09
2022-12-14T21:29:54.229Z,97540.91
2022-12-14T21:32:22.232Z,97533.78
2022-12-14T21:34:49.495Z,97539.38
2022-12-14T21:37:16.135Z,97546.69
2022-12-14T21:39:46.319Z,97550.84
2022-12-14T21:42:20.477Z,97552.66
2022-12-14T21:44:49.417Z,97550.91
2022-12-14T21:47:19.016Z,97550.75
2022-12-14T21:49:47.496Z,97549.59
2022-12-14T21:52:16.095Z,97547.50
2022-12-14T21:54:47.526Z,97547.16
2022-12-14T21:57:41.964Z,97552.25
2022-12-14T22:00:10.079Z,97548.31
2022-12-14T22:02:36.646Z,97557.59
2022-12-14T22:05:03.742Z,97559.34
2022-12-14T22:07:32.907Z,97563.00
2022-12-14T22:09:59.404Z,97562.13
2022-12-14T22:12:26.105Z,97567.22
2022-12-14T22:14:52.667Z,97565.59
2022-12-14T22:17:19.343Z,97564.00
2022-12-14T22:19:45.989Z,97568.84
2022-12-14T22:22:18.421Z,97575.66
2022-12-14T22:24:51.257Z,97580.16
2022-12-14T22:27:18.995Z,97577.53
2022-12-14T22:29:45.497Z,97566.41
2022-12-14T22:32:12.492Z,97575.94
2022-12-14T22:34:42.010Z,97570.91
2022-12-14T22:37:13.243Z,97575.81
2022-12-14T22:39:42.937Z,97576.69
2022-12-14T22:42:09.825Z,97580.06
2022-12-14T22:44:36.258Z,97591.50
2022-12-14T22:47:02.771Z,97595.66
2022-12-14T22:49:29.242Z,97598.03
2022-12-14T22:51:56.474Z,97595.50
2022-12-14T22:54:25.967Z,97591.94
2022-12-14T22:57:13.776Z,97587.47
2022-12-14T22:59:58.093Z,97588.19
2022-12-14T23:02:25.110Z,97588.94
2022-12-14T23:04:51.827Z,97587.31
2022-12-14T23:07:18.370Z,97590.00
2022-12-14T23:10:03.398Z,97583.16
2022-12-14T23:12:48.555Z,97580.16
2022-12-14T23:15:33.961Z,97588.22
2022-12-14T23:18:20.849Z,97586.31
2022-12-14T23:21:06.237Z,97593.50
2022-12-14T23:23:58.872Z,97590.75
2022-12-14T23:26:44.186Z,97589.91
2022-12-14T23:29:29.461Z,97586.91
2022-12-14T23:32:16.297Z,97579.38
2022-12-14T23:35:00.969Z,97576.25
2022-12-14T23:37:45.994Z,97572.53
2022-12-14T23:40:30.789Z,97578.53
2022-12-14T23:43:15.603Z,97579.09
2022-12-14T23:46:04.980Z,97579.00
2022-12-14T23:48:50.193Z,97585.22
2022-12-14T23:51:35.231Z,97584.44
2022-12-14T23:54:19.996Z,97591.06
2022-12-14T23:57:08.224Z,97593.09
2022-12-14T23:59:53.632Z,97593.75
